createdAt,value
2022-07-30T00:00:31.783Z,37.06
2022-07-30T00:01:31.809Z,37.38
2022-07-30T00:02:31.761Z,36.90
2022-07-30T00:03:31.790Z,36.90
2022-07-30T00:04:31.725Z,36.74
2022-07-30T00:05:31.721Z,37.06
2022-07-30T00:06:31.714Z,37.06
2022-07-30T00:07:31.713Z,38.03
2022-07-30T00:08:31.672Z,38.35
2022-07-30T00:09:34.220Z,36.90
2022-07-30T00:10:31.671Z,37.22
2022-07-30T00:11:31.672Z,36.90
2022-07-30T00:12:31.647Z,37.06
2022-07-30T00:13:31.641Z,36.90
2022-07-30T00:14:31.617Z,37.22
2022-07-30T00:15:31.604Z,37.71
2022-07-30T00:16:31.621Z,37.38
2022-07-30T00:17:31.618Z,37.38
2022-07-30T00:18:31.599Z,37.22
2022-07-30T00:19:31.581Z,36.58
2022-07-30T00:20:32.317Z,36.58
2022-07-30T00:21:38.898Z,36.09
2022-07-30T00:22:32.587Z,36.90
2022-07-30T00:23:31.549Z,37.06
2022-07-30T00:24:31.547Z,36.74
2022-07-30T00:25:31.533Z,37.71
2022-07-30T00:26:31.507Z,38.19
2022-07-30T00:27:31.497Z,38.83
2022-07-30T00:28:31.506Z,38.35
2022-07-30T00:29:31.475Z,37.54
2022-07-30T00:30:31.552Z,37.38
2022-07-30T00:31:31.465Z,37.87
2022-07-30T00:32:31.457Z,37.06
2022-07-30T00:33:31.448Z,37.22
2022-07-30T00:34:31.415Z,37.87
2022-07-30T00:35:31.421Z,37.22
2022-07-30T00:36:31.425Z,38.03
2022-07-30T00:37:31.408Z,37.71
2022-07-30T00:38:31.404Z,37.38
2022-07-30T00:39:31.368Z,36.58
2022-07-30T00:40:31.366Z,37.06
2022-07-30T00:41:31.370Z,36.90
2022-07-30T00:42:31.359Z,36.58
2022-07-30T00:43:31.359Z,37.22
2022-07-30T00:44:31.346Z,38.99
2022-07-30T00:45:31.350Z,37.38
2022-07-30T00:46:31.306Z,37.38
2022-07-30T00:47:31.308Z,37.38
2022-07-30T00:48:31.305Z,37.54
2022-07-30T00:49:31.288Z,37.06
2022-07-30T00:50:31.274Z,37.54
2022-07-30T00:51:31.272Z,37.54
2022-07-30T00:52:31.271Z,37.71
2022-07-30T00:53:31.256Z,37.54
2022-07-30T00:54:31.230Z,37.87
2022-07-30T00:55:31.225Z,37.38
2022-07-30T00:56:31.217Z,37.71
2022-07-30T00:57:31.191Z,38.83
2022-07-30T00:58:31.196Z,38.99
2022-07-30T00:59:31.188Z,38.19
2022-07-30T01:00:31.179Z,37.22
2022-07-30T01:01:31.203Z,36.25
2022-07-30T01:02:31.231Z,37.06
2022-07-30T01:03:31.155Z,36.90
2022-07-30T01:04:32.140Z,37.54
2022-07-30T01:05:31.126Z,36.74
2022-07-30T01:06:31.113Z,36.58
2022-07-30T01:07:31.114Z,37.22
2022-07-30T01:08:31.102Z,37.54
2022-07-30T01:09:31.117Z,37.22
2022-07-30T01:10:31.075Z,37.54
2022-07-30T01:11:31.053Z,37.38
2022-07-30T01:12:31.048Z,36.42
2022-07-30T01:13:31.040Z,37.54
2022-07-30T01:14:31.030Z,37.71
2022-07-30T01:15:31.009Z,37.06
2022-07-30T01:16:31.032Z,36.90
2022-07-30T01:17:30.990Z,36.58
2022-07-30T01:18:31.017Z,36.09
2022-07-30T01:19:30.973Z,36.25
2022-07-30T01:20:30.982Z,36.74
2022-07-30T01:21:30.965Z,36.74
2022-07-30T01:22:31.247Z,36.42
2022-07-30T01:23:30.953Z,36.90
2022-07-30T01:24:30.934Z,37.06
2022-07-30T01:25:30.932Z,38.19
2022-07-30T01:26:30.910Z,38.03
2022-07-30T01:27:30.885Z,39.32
2022-07-30T01:28:30.893Z,39.32
2022-07-30T01:29:30.872Z,37.06
2022-07-30T01:30:30.860Z,38.35
2022-07-30T01:31:30.920Z,38.83
2022-07-30T01:32:30.845Z,38.19
2022-07-30T01:33:30.852Z,37.71
2022-07-30T01:34:30.812Z,39.32
2022-07-30T01:35:30.799Z,39.16
2022-07-30T01:36:30.784Z,37.87
2022-07-30T01:37:30.776Z,38.35
2022-07-30T01:38:31.187Z,37.22
2022-07-30T01:39:30.781Z,36.74
2022-07-30T01:40:30.772Z,37.22
2022-07-30T01:41:30.765Z,37.38
2022-07-30T01:42:30.761Z,38.51
2022-07-30T01:43:30.742Z,38.19
2022-07-30T01:44:30.712Z,38.51
2022-07-30T01:45:30.723Z,37.87
2022-07-30T01:46:30.684Z,37.71
2022-07-30T01:47:30.698Z,38.03
2022-07-30T01:48:30.704Z,36.90
2022-07-30T01:49:30.681Z,37.06
2022-07-30T01:50:30.647Z,36.90
2022-07-30T01:51:37.153Z,37.22
2022-07-30T01:52:31.653Z,37.38
2022-07-30T01:53:30.631Z,37.87
2022-07-30T01:54:30.605Z,38.67
2022-07-30T01:55:30.606Z,37.71
2022-07-30T01:56:30.585Z,36.42
2022-07-30T01:57:30.571Z,37.22
2022-07-30T01:58:30.568Z,37.38
2022-07-30T01:59:30.571Z,36.90
2022-07-30T02:00:30.547Z,38.35
2022-07-30T02:01:30.619Z,38.19
2022-07-30T02:02:30.515Z,37.22
2022-07-30T02:03:30.536Z,37.54
2022-07-30T02:04:30.518Z,37.38
2022-07-30T02:05:30.501Z,36.74
2022-07-30T02:06:30.488Z,36.74
2022-07-30T02:07:30.460Z,37.06
2022-07-30T02:08:30.465Z,37.06
2022-07-30T02:09:30.455Z,38.35
2022-07-30T02:10:30.448Z,37.54
2022-07-30T02:11:30.453Z,37.54
2022-07-30T02:12:30.411Z,37.06
2022-07-30T02:13:30.410Z,37.54
2022-07-30T02:14:30.426Z,37.71
2022-07-30T02:15:30.407Z,37.54
2022-07-30T02:16:30.481Z,37.71
2022-07-30T02:17:39.588Z,38.35
2022-07-30T02:18:31.370Z,38.19
2022-07-30T02:19:32.871Z,37.87
2022-07-30T02:20:30.336Z,37.06
2022-07-30T02:21:36.458Z,38.35
2022-07-30T02:22:31.302Z,38.35
2022-07-30T02:23:30.303Z,37.87
2022-07-30T02:24:30.310Z,38.19
2022-07-30T02:25:30.285Z,38.51
2022-07-30T02:26:30.268Z,38.03
2022-07-30T02:27:30.272Z,38.19
2022-07-30T02:28:30.277Z,37.87
2022-07-30T02:29:30.277Z,38.99
2022-07-30T02:30:30.245Z,39.16
2022-07-30T02:31:30.302Z,37.87
2022-07-30T02:32:30.233Z,38.03
2022-07-30T02:33:30.233Z,38.35
2022-07-30T02:34:30.261Z,38.83
2022-07-30T02:35:30.192Z,38.83
2022-07-30T02:36:30.193Z,39.64
2022-07-30T02:37:43.072Z,37.71
2022-07-30T02:38:31.160Z,39.16
2022-07-30T02:39:30.179Z,39.80
2022-07-30T02:40:30.169Z,38.83
2022-07-30T02:41:30.126Z,39.64
2022-07-30T02:42:30.139Z,39.96
2022-07-30T02:43:30.118Z,42.22
2022-07-30T02:44:31.130Z,40.61
2022-07-30T02:45:30.091Z,39.16
2022-07-30T02:46:30.109Z,37.87
2022-07-30T02:47:30.069Z,37.06
2022-07-30T02:48:35.036Z,37.87
2022-07-30T02:49:31.061Z,38.19
2022-07-30T02:50:30.038Z,41.09
2022-07-30T02:51:30.047Z,40.12
2022-07-30T02:52:30.014Z,38.83
2022-07-30T02:53:30.019Z,38.19
2022-07-30T02:54:31.326Z,38.03
2022-07-30T02:55:30.997Z,38.67
2022-07-30T02:56:29.979Z,39.64
2022-07-30T02:57:29.964Z,41.25
2022-07-30T02:58:29.969Z,39.48
2022-07-30T02:59:29.966Z,39.16
2022-07-30T03:00:30.031Z,38.83
2022-07-30T03:01:29.962Z,39.80
2022-07-30T03:02:29.984Z,39.96
2022-07-30T03:03:29.913Z,39.32
2022-07-30T03:04:29.912Z,41.89
2022-07-30T03:05:29.913Z,41.09
2022-07-30T03:06:29.898Z,39.80
2022-07-30T03:07:29.900Z,39.96
2022-07-30T03:08:29.875Z,39.64
2022-07-30T03:09:51.459Z,39.64
2022-07-30T03:10:30.880Z,39.80
2022-07-30T03:11:29.866Z,40.28
2022-07-30T03:12:29.843Z,39.96
2022-07-30T03:13:29.822Z,40.44
2022-07-30T03:14:29.821Z,39.16
2022-07-30T03:15:29.813Z,38.83
2022-07-30T03:16:30.533Z,37.71
2022-07-30T03:17:29.793Z,38.19
2022-07-30T03:18:29.767Z,37.87
2022-07-30T03:19:29.758Z,37.87
2022-07-30T03:20:29.755Z,37.87
2022-07-30T03:21:29.730Z,37.38
2022-07-30T03:22:33.014Z,38.19
2022-07-30T03:23:30.717Z,37.54
2022-07-30T03:24:29.705Z,37.38
2022-07-30T03:25:29.701Z,37.06
2022-07-30T03:26:29.704Z,37.38
2022-07-30T03:27:29.676Z,38.35
2022-07-30T03:28:29.681Z,37.06
2022-07-30T03:29:29.685Z,41.25
2022-07-30T03:30:29.671Z,38.35
2022-07-30T03:31:36.100Z,37.38
2022-07-30T03:32:30.646Z,37.54
2022-07-30T03:33:38.944Z,37.71
2022-07-30T03:34:30.606Z,37.22
2022-07-30T03:35:31.134Z,37.38
2022-07-30T03:36:29.616Z,37.06
2022-07-30T03:37:29.630Z,37.38
2022-07-30T03:38:29.579Z,37.22
2022-07-30T03:39:29.583Z,37.22
2022-07-30T03:40:29.573Z,36.90
2022-07-30T03:41:29.554Z,37.54
2022-07-30T03:42:29.543Z,36.90
2022-07-30T03:43:33.174Z,37.87
2022-07-30T03:44:29.534Z,37.38
2022-07-30T03:45:29.522Z,37.71
2022-07-30T03:46:29.572Z,36.90
2022-07-30T03:47:29.487Z,37.54
2022-07-30T03:48:29.505Z,37.22
2022-07-30T03:49:29.491Z,37.54
2022-07-30T03:50:29.486Z,38.03
2022-07-30T03:51:33.017Z,37.87
2022-07-30T03:52:29.451Z,37.22
2022-07-30T03:53:29.444Z,37.71
2022-07-30T03:54:29.419Z,37.54
2022-07-30T03:55:29.434Z,38.19
2022-07-30T03:56:29.453Z,37.87
2022-07-30T03:57:29.388Z,36.42
2022-07-30T03:58:32.186Z,36.58
2022-07-30T03:59:30.385Z,36.25
2022-07-30T04:00:29.385Z,36.58
2022-07-30T04:01:29.425Z,36.25
2022-07-30T04:02:29.356Z,36.42
2022-07-30T04:03:29.354Z,39.48
2022-07-30T04:04:29.321Z,37.87
2022-07-30T04:05:41.209Z,37.71
2022-07-30T04:06:30.312Z,37.87
2022-07-30T04:07:29.305Z,38.51
2022-07-30T04:08:29.304Z,37.71
2022-07-30T04:09:29.301Z,37.71
2022-07-30T04:10:29.271Z,37.22
2022-07-30T04:11:41.685Z,39.48
2022-07-30T04:12:30.270Z,37.38
2022-07-30T04:13:29.253Z,37.22
2022-07-30T04:14:29.213Z,38.03
2022-07-30T04:16:31.775Z,37.71
2022-07-30T04:16:39.425Z,37.22
2022-07-30T04:17:30.261Z,37.22
2022-07-30T04:18:29.221Z,37.06
2022-07-30T04:19:29.193Z,38.35
2022-07-30T04:20:29.170Z,37.87
2022-07-30T04:21:29.197Z,37.54
2022-07-30T04:22:29.148Z,37.22
2022-07-30T04:23:29.177Z,37.06
2022-07-30T04:24:29.147Z,38.03
2022-07-30T04:25:29.141Z,37.87
2022-07-30T04:26:29.127Z,37.87
2022-07-30T04:27:29.106Z,38.03
2022-07-30T04:28:29.080Z,38.83
2022-07-30T04:29:29.073Z,38.83
2022-07-30T04:30:29.071Z,38.67
2022-07-30T04:31:29.164Z,37.71
2022-07-30T04:32:29.064Z,38.19
2022-07-30T04:33:29.037Z,38.19
2022-07-30T04:34:29.036Z,38.35
2022-07-30T04:35:51.020Z,38.35
2022-07-30T04:36:30.024Z,37.38
2022-07-30T04:37:29.016Z,39.64
2022-07-30T04:38:29.008Z,38.35
2022-07-30T04:39:28.991Z,38.19
2022-07-30T04:40:28.974Z,38.51
2022-07-30T04:41:28.991Z,38.03
2022-07-30T04:42:30.959Z,38.51
2022-07-30T04:43:28.953Z,37.71
2022-07-30T04:44:28.944Z,38.35
2022-07-30T04:45:28.996Z,38.35
2022-07-30T04:46:28.966Z,39.16
2022-07-30T04:47:28.892Z,38.19
2022-07-30T04:48:28.896Z,38.19
2022-07-30T04:49:28.932Z,38.51
2022-07-30T04:50:28.865Z,38.51
2022-07-30T04:51:28.874Z,39.16
2022-07-30T04:52:28.857Z,37.87
2022-07-30T04:53:28.831Z,37.06
2022-07-30T04:54:28.841Z,36.74
2022-07-30T04:55:28.841Z,37.87
2022-07-30T04:56:28.843Z,37.87
2022-07-30T04:57:28.808Z,37.54
2022-07-30T04:58:28.789Z,38.35
2022-07-30T04:59:28.801Z,37.38
2022-07-30T05:00:32.132Z,38.03
2022-07-30T05:01:35.928Z,35.77
2022-07-30T05:02:29.772Z,36.25
2022-07-30T05:03:28.792Z,37.06
2022-07-30T05:04:28.773Z,40.12
2022-07-30T05:05:28.819Z,36.58
2022-07-30T05:06:29.756Z,35.77
2022-07-30T05:07:28.707Z,35.77
2022-07-30T05:08:29.083Z,36.42
2022-07-30T05:09:28.691Z,36.42
2022-07-30T05:10:28.671Z,35.45
2022-07-30T05:11:28.698Z,36.90
2022-07-30T05:12:28.675Z,39.80
2022-07-30T05:13:34.503Z,35.77
2022-07-30T05:14:29.665Z,36.25
2022-07-30T05:15:36.102Z,37.38
2022-07-30T05:16:29.716Z,36.74
2022-07-30T05:17:28.602Z,37.22
2022-07-30T05:18:28.608Z,37.38
2022-07-30T05:19:28.588Z,37.54
2022-07-30T05:20:28.571Z,36.90
2022-07-30T05:21:28.667Z,36.74
2022-07-30T05:22:28.545Z,38.35
2022-07-30T05:23:28.531Z,37.87
2022-07-30T05:24:28.522Z,37.22
2022-07-30T05:25:28.530Z,37.38
2022-07-30T05:26:28.514Z,37.22
2022-07-30T05:27:28.504Z,36.90
2022-07-30T05:28:28.508Z,38.51
2022-07-30T05:29:28.485Z,37.22
2022-07-30T05:30:28.470Z,37.54
2022-07-30T05:31:30.523Z,36.90
2022-07-30T05:32:28.447Z,36.74
2022-07-30T05:33:41.273Z,37.38
2022-07-30T05:34:29.442Z,38.83
2022-07-30T05:35:28.412Z,38.83
2022-07-30T05:36:28.406Z,37.54
2022-07-30T05:37:29.443Z,38.03
2022-07-30T05:38:28.754Z,39.16
2022-07-30T05:39:28.399Z,40.44
2022-07-30T05:40:28.404Z,36.42
2022-07-30T05:41:33.012Z,36.90
2022-07-30T05:42:28.350Z,39.96
2022-07-30T05:43:28.592Z,58.33
2022-07-30T05:44:28.383Z,57.20
2022-07-30T05:45:28.356Z,41.57
2022-07-30T05:46:28.497Z,37.71
2022-07-30T05:47:28.317Z,38.35
2022-07-30T05:48:28.320Z,37.22
2022-07-30T05:49:28.303Z,38.83
2022-07-30T05:50:28.275Z,39.16
2022-07-30T05:51:28.277Z,40.61
2022-07-30T05:52:28.252Z,38.35
2022-07-30T05:53:28.235Z,35.93
2022-07-30T05:54:28.247Z,36.09
2022-07-30T05:55:28.272Z,35.13
2022-07-30T05:56:28.255Z,34.97
2022-07-30T05:57:28.260Z,34.97
2022-07-30T05:58:29.244Z,38.51
2022-07-30T05:59:28.237Z,36.09
2022-07-30T06:00:28.432Z,35.61
2022-07-30T06:01:28.526Z,36.42
2022-07-30T06:02:28.249Z,36.90
2022-07-30T06:03:28.169Z,36.58
2022-07-30T06:04:28.199Z,36.90
2022-07-30T06:05:28.185Z,37.38
2022-07-30T06:06:28.174Z,35.93
2022-07-30T06:07:28.132Z,35.29
2022-07-30T06:08:28.097Z,36.42
2022-07-30T06:09:36.422Z,37.22
2022-07-30T06:10:29.086Z,35.93
2022-07-30T06:11:28.084Z,35.93
2022-07-30T06:12:28.082Z,35.29
2022-07-30T06:13:28.057Z,34.97
2022-07-30T06:14:28.064Z,35.13
2022-07-30T06:15:28.057Z,35.13
2022-07-30T06:16:28.143Z,34.97
2022-07-30T06:17:28.024Z,36.90
2022-07-30T06:18:28.024Z,35.29
2022-07-30T06:19:28.008Z,36.09
2022-07-30T06:20:28.055Z,36.74
2022-07-30T06:21:27.977Z,37.22
2022-07-30T06:22:28.990Z,38.67
2022-07-30T06:23:27.984Z,36.90
2022-07-30T06:24:29.115Z,36.09
2022-07-30T06:25:27.937Z,36.90
2022-07-30T06:26:27.925Z,36.25
2022-07-30T06:27:31.287Z,36.74
2022-07-30T06:28:37.700Z,41.73
2022-07-30T06:29:29.909Z,38.19
2022-07-30T06:30:31.096Z,36.25
2022-07-30T06:31:27.926Z,36.25
2022-07-30T06:32:27.883Z,36.09
2022-07-30T06:33:27.881Z,36.42
2022-07-30T06:34:27.860Z,37.22
2022-07-30T06:35:27.871Z,37.06
2022-07-30T06:36:27.853Z,37.54
2022-07-30T06:38:00.545Z,38.19
2022-07-30T06:38:28.826Z,41.41
2022-07-30T06:39:55.915Z,39.96
2022-07-30T06:40:28.800Z,41.89
2022-07-30T06:41:27.849Z,40.44
2022-07-30T06:42:27.833Z,36.25
2022-07-30T06:43:27.821Z,37.71
2022-07-30T06:44:27.789Z,37.22
2022-07-30T06:45:27.794Z,35.93
2022-07-30T06:46:27.840Z,37.06
2022-07-30T06:47:27.768Z,37.54
2022-07-30T06:48:27.739Z,40.93
2022-07-30T06:49:29.532Z,38.35
2022-07-30T06:50:28.749Z,37.71
2022-07-30T06:51:27.760Z,37.54
2022-07-30T06:52:27.829Z,38.67
2022-07-30T06:53:27.684Z,37.38
2022-07-30T06:54:27.669Z,39.48
2022-07-30T06:55:27.651Z,38.67
2022-07-30T06:56:27.647Z,36.74
2022-07-30T06:57:27.648Z,39.64
2022-07-30T06:58:27.653Z,38.83
2022-07-30T06:59:27.614Z,38.99
2022-07-30T07:00:27.637Z,38.19
2022-07-30T07:01:27.634Z,36.42
2022-07-30T07:02:27.604Z,36.58
2022-07-30T07:03:39.951Z,37.38
2022-07-30T07:04:28.614Z,36.42
2022-07-30T07:05:27.543Z,37.38
2022-07-30T07:06:27.546Z,41.73
2022-07-30T07:07:41.421Z,42.54
2022-07-30T07:08:53.228Z,37.54
2022-07-30T07:09:29.498Z,39.48
2022-07-30T07:10:30.433Z,37.22
2022-07-30T07:11:32.504Z,37.38
2022-07-30T07:12:28.629Z,34.97
2022-07-30T07:13:27.781Z,34.64
2022-07-30T07:14:27.485Z,39.64
2022-07-30T07:15:36.407Z,39.64
2022-07-30T07:16:28.561Z,34.00
2022-07-30T07:17:27.461Z,33.84
2022-07-30T07:18:27.437Z,37.38
2022-07-30T07:20:00.286Z,36.42
2022-07-30T07:20:30.810Z,41.73
2022-07-30T07:21:27.417Z,35.13
2022-07-30T07:22:27.401Z,44.47
2022-07-30T07:23:41.373Z,37.87
2022-07-30T07:24:28.372Z,38.03
2022-07-30T07:25:27.380Z,38.35
2022-07-30T07:26:27.354Z,36.42
2022-07-30T07:27:27.368Z,39.96
2022-07-30T07:28:33.365Z,37.71
2022-07-30T07:29:28.329Z,36.74
2022-07-30T07:30:27.368Z,34.97
2022-07-30T07:32:05.642Z,35.93
2022-07-30T07:32:28.348Z,37.38
2022-07-30T07:33:27.309Z,38.51
2022-07-30T07:34:27.273Z,40.44
2022-07-30T07:35:27.298Z,36.42
2022-07-30T07:36:27.346Z,34.64
2022-07-30T07:37:27.292Z,35.77
2022-07-30T07:38:27.256Z,34.64
2022-07-30T07:39:27.224Z,36.25
2022-07-30T07:40:27.224Z,44.96
2022-07-30T07:41:27.217Z,34.80
2022-07-30T07:42:27.213Z,33.68
2022-07-30T07:43:27.205Z,34.16
2022-07-30T07:44:27.170Z,33.84
2022-07-30T07:45:27.167Z,34.00
2022-07-30T07:46:33.433Z,34.32
2022-07-30T07:47:28.152Z,34.48
2022-07-30T07:48:27.163Z,35.77
2022-07-30T07:49:27.163Z,34.80
2022-07-30T07:50:27.104Z,39.64
2022-07-30T07:51:47.766Z,34.80
2022-07-30T07:52:28.110Z,34.32
2022-07-30T07:53:27.129Z,35.93
2022-07-30T07:54:27.081Z,37.06
2022-07-30T07:55:27.077Z,35.93
2022-07-30T07:56:27.045Z,37.87
2022-07-30T07:57:27.062Z,37.87
2022-07-30T07:58:27.067Z,36.58
2022-07-30T07:59:35.888Z,36.90
2022-07-30T08:00:28.019Z,35.93
2022-07-30T08:01:27.067Z,36.74
2022-07-30T08:02:27.032Z,42.54
2022-07-30T08:03:26.993Z,36.25
2022-07-30T08:04:26.992Z,37.54
2022-07-30T08:05:54.396Z,38.35
2022-07-30T08:06:27.963Z,38.03
2022-07-30T08:07:26.976Z,36.42
2022-07-30T08:08:26.940Z,36.58
2022-07-30T08:09:27.958Z,34.80
2022-07-30T08:10:27.924Z,39.16
2022-07-30T08:11:26.910Z,36.25
2022-07-30T08:12:26.913Z,39.32
2022-07-30T08:13:51.567Z,39.96
2022-07-30T08:14:27.890Z,35.93
2022-07-30T08:15:27.868Z,34.97
2022-07-30T08:16:26.909Z,34.64
2022-07-30T08:17:26.853Z,38.51
2022-07-30T08:18:26.871Z,36.09
2022-07-30T08:19:26.846Z,37.87
2022-07-30T08:20:30.728Z,41.09
2022-07-30T08:21:27.812Z,36.74
2022-07-30T08:22:26.803Z,36.42
2022-07-30T08:23:26.813Z,36.42
2022-07-30T08:24:26.808Z,37.71
2022-07-30T08:25:26.789Z,35.93
2022-07-30T08:26:26.774Z,37.06
2022-07-30T08:27:26.763Z,35.61
2022-07-30T08:28:36.455Z,35.77
2022-07-30T08:29:27.755Z,38.99
2022-07-30T08:30:26.822Z,37.71
2022-07-30T08:31:26.734Z,35.45
2022-07-30T08:32:26.724Z,36.74
2022-07-30T08:33:27.456Z,38.99
2022-07-30T08:34:26.705Z,40.93
2022-07-30T08:35:26.705Z,38.51
2022-07-30T08:36:26.687Z,38.19
2022-07-30T08:37:26.703Z,39.16
2022-07-30T08:38:26.686Z,38.67
2022-07-30T08:39:26.654Z,37.38
2022-07-30T08:40:26.631Z,38.35
2022-07-30T08:41:26.613Z,37.06
2022-07-30T08:42:26.626Z,38.03
2022-07-30T08:43:26.613Z,38.03
2022-07-30T08:44:26.606Z,39.16
2022-07-30T08:45:34.816Z,36.58
2022-07-30T08:46:27.582Z,37.22
2022-07-30T08:47:26.578Z,40.77
2022-07-30T08:48:26.592Z,42.86
2022-07-30T08:49:26.613Z,37.87
2022-07-30T08:50:26.549Z,36.90
2022-07-30T08:51:26.610Z,35.13
2022-07-30T08:52:26.569Z,35.61
2022-07-30T08:53:26.522Z,37.38
2022-07-30T08:54:26.500Z,38.67
2022-07-30T08:55:26.481Z,38.67
2022-07-30T08:56:26.500Z,37.38
2022-07-30T08:57:26.479Z,34.80
2022-07-30T08:58:26.481Z,39.96
2022-07-30T08:59:52.888Z,35.45
2022-07-30T09:00:27.429Z,35.29
2022-07-30T09:01:26.437Z,41.73
2022-07-30T09:02:27.355Z,35.13
2022-07-30T09:03:26.405Z,37.38
2022-07-30T09:04:26.401Z,38.67
2022-07-30T09:05:26.401Z,33.84
2022-07-30T09:06:26.412Z,35.77
2022-07-30T09:07:26.368Z,35.61
2022-07-30T09:08:26.371Z,40.93
2022-07-30T09:09:26.340Z,37.54
2022-07-30T09:10:26.333Z,37.22
2022-07-30T09:11:26.332Z,38.67
2022-07-30T09:12:26.333Z,37.54
2022-07-30T09:13:26.362Z,34.80
2022-07-30T09:14:30.781Z,34.16
2022-07-30T09:15:26.315Z,36.42
2022-07-30T09:16:26.364Z,34.80
2022-07-30T09:17:31.222Z,34.48
2022-07-30T09:18:28.284Z,33.35
2022-07-30T09:19:26.276Z,36.58
2022-07-30T09:20:26.246Z,34.16
2022-07-30T09:21:26.239Z,34.97
2022-07-30T09:22:26.202Z,37.54
2022-07-30T09:23:26.233Z,36.09
2022-07-30T09:24:26.220Z,34.16
2022-07-30T09:25:26.192Z,33.03
2022-07-30T09:26:26.184Z,34.64
2022-07-30T09:27:26.957Z,33.03
2022-07-30T09:28:26.200Z,33.84
2022-07-30T09:29:26.249Z,36.74
2022-07-30T09:30:30.542Z,38.03
2022-07-30T09:32:26.140Z,35.61
2022-07-30T09:33:26.147Z,35.77
2022-07-30T09:34:26.118Z,36.42
2022-07-30T09:35:26.121Z,35.77
2022-07-30T09:36:26.103Z,38.35
2022-07-30T09:37:27.376Z,41.57
2022-07-30T09:38:26.092Z,36.90
2022-07-30T09:39:26.084Z,38.35
2022-07-30T09:40:27.862Z,41.41
2022-07-30T09:41:38.889Z,36.25
2022-07-30T09:42:28.057Z,36.25
2022-07-30T09:43:28.059Z,35.61
2022-07-30T09:44:27.046Z,33.35
2022-07-30T09:45:26.006Z,35.45
2022-07-30T09:46:27.053Z,42.70
2022-07-30T09:47:26.013Z,40.12
2022-07-30T09:48:26.009Z,37.54
2022-07-30T09:49:26.152Z,37.06
2022-07-30T09:51:54.443Z,35.45
2022-07-30T09:52:26.984Z,34.64
2022-07-30T09:53:26.496Z,37.87
2022-07-30T09:54:25.961Z,38.67
2022-07-30T09:55:25.935Z,34.00
2022-07-30T09:56:25.914Z,35.77
2022-07-30T09:57:27.876Z,35.93
2022-07-30T09:58:27.215Z,33.68
2022-07-30T09:59:25.931Z,33.19
2022-07-30T10:00:26.947Z,34.80
2022-07-30T10:01:49.877Z,46.25
2022-07-30T10:02:27.848Z,46.89
2022-07-30T10:03:38.506Z,38.19
2022-07-30T10:04:26.855Z,38.03
2022-07-30T10:05:25.847Z,35.13
2022-07-30T10:06:25.827Z,32.87
2022-07-30T10:07:26.017Z,34.97
2022-07-30T10:08:25.795Z,34.00
2022-07-30T10:09:25.802Z,34.00
2022-07-30T10:10:26.151Z,33.35
2022-07-30T10:11:25.815Z,35.13
2022-07-30T10:12:26.791Z,36.42
2022-07-30T10:13:29.262Z,39.16
2022-07-30T10:14:31.388Z,34.97
2022-07-30T10:15:26.735Z,34.64
2022-07-30T10:16:25.731Z,33.68
2022-07-30T10:17:25.716Z,36.42
2022-07-30T10:18:25.680Z,37.54
2022-07-30T10:19:40.359Z,34.48
2022-07-30T10:20:26.658Z,34.32
2022-07-30T10:21:25.820Z,35.61
2022-07-30T10:22:25.644Z,35.45
2022-07-30T10:23:27.168Z,37.87
2022-07-30T10:24:27.396Z,34.48
2022-07-30T10:25:28.100Z,34.48
2022-07-30T10:26:25.637Z,38.19
2022-07-30T10:27:25.614Z,32.87
2022-07-30T10:28:25.616Z,34.32
2022-07-30T10:29:33.683Z,36.09
2022-07-30T10:30:27.879Z,34.97
2022-07-30T10:31:49.275Z,35.77
2022-07-30T10:32:30.645Z,36.42
2022-07-30T10:33:37.527Z,35.13
2022-07-30T10:34:28.442Z,37.38
2022-07-30T10:35:34.510Z,37.22
2022-07-30T10:36:26.526Z,32.23
2022-07-30T10:37:25.514Z,35.13
2022-07-30T10:38:25.509Z,31.42
2022-07-30T10:39:26.245Z,33.52
2022-07-30T10:40:30.443Z,32.87
2022-07-30T10:41:42.178Z,31.90
2022-07-30T10:42:26.465Z,34.16
2022-07-30T10:43:31.763Z,35.61
2022-07-30T10:44:26.484Z,33.03
2022-07-30T10:45:25.456Z,31.10
2022-07-30T10:46:25.425Z,31.42
2022-07-30T10:47:29.845Z,33.35
2022-07-30T10:48:27.389Z,33.68
2022-07-30T10:49:25.427Z,31.58
2022-07-30T10:50:25.414Z,31.74
2022-07-30T10:51:34.663Z,29.49
2022-07-30T10:52:26.375Z,32.87
2022-07-30T10:53:28.532Z,30.62
2022-07-30T10:54:26.374Z,29.49
2022-07-30T10:55:36.931Z,29.97
2022-07-30T10:56:26.327Z,29.49
2022-07-30T10:57:32.817Z,29.49
2022-07-30T10:58:26.321Z,30.29
2022-07-30T10:59:28.929Z,29.49
2022-07-30T11:00:26.402Z,35.29
2022-07-30T11:01:25.283Z,31.58
2022-07-30T11:02:26.291Z,31.42
2022-07-30T11:03:40.502Z,31.26
2022-07-30T11:04:29.434Z,29.97
2022-07-30T11:05:27.137Z,30.45
2022-07-30T11:06:26.249Z,33.35
2022-07-30T11:07:25.248Z,31.26
2022-07-30T11:08:26.643Z,31.74
2022-07-30T11:09:26.200Z,29.81
2022-07-30T11:10:25.244Z,30.13
2022-07-30T11:11:28.709Z,30.62
2022-07-30T11:12:26.172Z,32.23
2022-07-30T11:13:25.227Z,30.94
2022-07-30T11:14:25.181Z,32.23
2022-07-30T11:15:25.177Z,31.42
2022-07-30T11:16:26.200Z,32.23
2022-07-30T11:17:25.154Z,31.90
2022-07-30T11:18:25.178Z,33.68
2022-07-30T11:19:55.161Z,30.78
2022-07-30T11:20:27.113Z,30.78
2022-07-30T11:21:25.110Z,31.26
2022-07-30T11:22:25.122Z,30.13
2022-07-30T11:23:25.080Z,38.99
2022-07-30T11:24:25.070Z,34.00
2022-07-30T11:25:25.103Z,29.65
2022-07-30T11:26:26.064Z,32.55
2022-07-30T11:27:25.051Z,30.13
2022-07-30T11:28:25.036Z,30.45
2022-07-30T11:29:32.805Z,34.00
2022-07-30T11:30:26.038Z,32.71
2022-07-30T11:31:37.115Z,30.62
2022-07-30T11:32:25.997Z,35.61
2022-07-30T11:33:32.306Z,38.99
2022-07-30T11:34:26.127Z,38.03
2022-07-30T11:35:24.994Z,32.23
2022-07-30T11:36:24.971Z,32.55
2022-07-30T11:37:31.876Z,31.10
2022-07-30T11:38:26.003Z,31.10
2022-07-30T11:39:29.793Z,31.42
2022-07-30T11:40:26.965Z,31.26
2022-07-30T11:41:24.943Z,30.78
2022-07-30T11:42:24.917Z,34.97
2022-07-30T11:43:34.850Z,30.62
2022-07-30T11:44:25.907Z,31.74
2022-07-30T11:45:24.933Z,32.07
2022-07-30T11:46:29.698Z,33.19
2022-07-30T11:47:25.862Z,32.07
2022-07-30T11:48:24.897Z,32.71
2022-07-30T11:49:24.928Z,30.94
2022-07-30T11:50:24.867Z,32.71
2022-07-30T11:51:24.860Z,37.87
2022-07-30T11:52:24.835Z,31.42
2022-07-30T11:53:24.859Z,32.39
2022-07-30T11:54:24.805Z,32.87
2022-07-30T11:55:24.811Z,32.55
2022-07-30T11:56:24.796Z,33.84
2022-07-30T11:57:24.793Z,41.25
2022-07-30T11:58:25.785Z,32.39
2022-07-30T11:59:24.751Z,34.48
2022-07-30T12:00:24.795Z,31.42
2022-07-30T12:01:24.776Z,31.26
2022-07-30T12:02:24.745Z,36.09
2022-07-30T12:03:24.740Z,36.42
2022-07-30T12:04:24.684Z,31.42
2022-07-30T12:05:24.711Z,32.87
2022-07-30T12:06:24.703Z,33.52
2022-07-30T12:07:24.692Z,31.26
2022-07-30T12:08:35.356Z,30.78
2022-07-30T12:09:27.259Z,32.71
2022-07-30T12:10:26.826Z,30.78
2022-07-30T12:11:24.659Z,31.10
2022-07-30T12:12:24.654Z,30.78
2022-07-30T12:13:24.628Z,29.81
2022-07-30T12:14:25.663Z,31.42
2022-07-30T12:15:24.615Z,32.71
2022-07-30T12:16:24.627Z,31.42
2022-07-30T12:17:24.598Z,36.25
2022-07-30T12:18:26.765Z,32.39
2022-07-30T12:19:25.605Z,31.10
2022-07-30T12:20:24.629Z,38.35
2022-07-30T12:21:24.598Z,30.78
2022-07-30T12:22:24.545Z,30.13
2022-07-30T12:23:24.549Z,29.49
2022-07-30T12:24:24.550Z,29.49
2022-07-30T12:25:24.564Z,29.65
2022-07-30T12:26:24.555Z,33.03
2022-07-30T12:27:24.495Z,31.26
2022-07-30T12:28:24.523Z,40.61
2022-07-30T12:29:24.512Z,37.87
2022-07-30T12:30:24.521Z,33.68
2022-07-30T12:31:24.488Z,32.07
2022-07-30T12:32:24.500Z,30.78
2022-07-30T12:33:24.451Z,30.94
2022-07-30T12:34:24.485Z,29.00
2022-07-30T12:35:24.449Z,30.29
2022-07-30T12:36:24.437Z,31.10
2022-07-30T12:37:24.431Z,34.00
2022-07-30T12:38:24.446Z,30.13
2022-07-30T12:39:24.394Z,31.10
2022-07-30T12:40:24.389Z,30.78
2022-07-30T12:41:24.422Z,32.07
2022-07-30T12:42:24.383Z,34.00
2022-07-30T12:43:24.398Z,33.19
2022-07-30T12:44:24.343Z,30.62
2022-07-30T12:45:24.418Z,29.33
2022-07-30T12:46:24.350Z,30.94
2022-07-30T12:47:24.454Z,29.65
2022-07-30T12:48:24.362Z,29.97
2022-07-30T12:49:24.357Z,31.90
2022-07-30T12:50:25.287Z,37.54
2022-07-30T12:51:24.324Z,35.13
2022-07-30T12:52:28.361Z,29.97
2022-07-30T12:53:24.307Z,30.29
2022-07-30T12:54:24.268Z,29.65